createdAt,value
2018-02-25T00:01:26.832Z,0.20
2018-02-25T00:04:28.077Z,0.00
2018-02-25T00:07:29.298Z,0.10
2018-02-25T00:10:31.229Z,0.20
2018-02-25T00:13:32.463Z,0.20
2018-02-25T00:16:33.662Z,0.20
2018-02-25T00:19:34.873Z,0.20
2018-02-25T00:22:36.808Z,0.00
2018-02-25T00:25:44.925Z,0.00
2018-02-25T00:28:46.129Z,0.00
2018-02-25T00:31:48.081Z,-0.10
2018-02-25T00:34:49.296Z,-0.10
2018-02-25T00:37:50.511Z,-0.10
2018-02-25T00:40:51.738Z,-0.10
2018-02-25T00:43:52.965Z,0.00
2018-02-25T00:46:54.897Z,-0.20
2018-02-25T00:49:56.105Z,-0.30
2018-02-25T00:52:58.033Z,-0.20
2018-02-25T00:55:59.245Z,-0.20
2018-02-25T00:59:01.299Z,-0.40
2018-02-25T01:02:02.563Z,-0.40
2018-02-25T01:05:04.000Z,-0.40
2018-02-25T01:08:05.376Z,-0.50
2018-02-25T01:11:06.600Z,-0.40
2018-02-25T01:14:07.916Z,-0.30
2018-02-25T01:17:09.266Z,-0.50
2018-02-25T01:20:10.694Z,-0.50
2018-02-25T01:23:12.257Z,-0.50
2018-02-25T01:26:13.946Z,-0.50
2018-02-25T01:29:15.340Z,-0.50
2018-02-25T01:32:16.569Z,-0.40
2018-02-25T01:35:17.901Z,-0.60
2018-02-25T01:38:19.428Z,-0.50
2018-02-25T01:41:20.749Z,-0.50
2018-02-25T01:44:22.000Z,-0.60
2018-02-25T01:47:23.290Z,-0.70
2018-02-25T01:50:24.528Z,-0.70
2018-02-25T01:53:25.742Z,-0.60
2018-02-25T01:56:26.954Z,-0.60
2018-02-25T01:59:28.149Z,-0.70
2018-02-25T02:02:29.396Z,-0.80
2018-02-25T02:05:31.355Z,-0.80
2018-02-25T02:08:32.601Z,-0.80
2018-02-25T02:11:33.789Z,-0.80
2018-02-25T02:14:35.007Z,-0.90
2018-02-25T02:17:36.223Z,-0.90
2018-02-25T02:20:38.217Z,-1.00
2018-02-25T02:23:39.412Z,-1.00
2018-02-25T02:26:40.641Z,-1.00
2018-02-25T02:29:41.866Z,-0.90
2018-02-25T02:32:43.092Z,-1.00
2018-02-25T02:35:44.350Z,-1.00
2018-02-25T02:38:45.570Z,-0.90
2018-02-25T02:41:47.532Z,-0.90
2018-02-25T02:44:48.751Z,-0.90
2018-02-25T02:47:49.971Z,-0.90
2018-02-25T02:50:51.169Z,-0.90
2018-02-25T02:53:52.378Z,-0.90
2018-02-25T02:56:53.626Z,-1.00
2018-02-25T02:59:54.836Z,-1.00
2018-02-25T03:02:56.800Z,-1.00
2018-02-25T03:05:58.749Z,-1.00
2018-02-25T03:08:59.972Z,-1.10
2018-02-25T03:12:01.184Z,-1.30
2018-02-25T03:15:02.434Z,-1.30
2018-02-25T03:18:03.648Z,-1.20
2018-02-25T03:21:04.877Z,-1.30
2018-02-25T03:24:06.086Z,-1.20
2018-02-25T03:27:07.308Z,-1.10
2018-02-25T03:30:08.525Z,-1.10
2018-02-25T03:33:09.729Z,-1.20
2018-02-25T03:36:10.952Z,-1.20
2018-02-25T03:39:12.181Z,-1.20
2018-02-25T03:42:14.142Z,-1.20
2018-02-25T03:45:15.364Z,-1.20
2018-02-25T03:48:16.596Z,-1.20
2018-02-25T03:51:17.801Z,-1.30
2018-02-25T03:54:19.017Z,-1.30
2018-02-25T03:57:20.232Z,-1.30
2018-02-25T04:00:21.469Z,-1.40
2018-02-25T04:03:22.680Z,-1.30
2018-02-25T04:06:23.882Z,-1.30
2018-02-25T04:09:25.171Z,-1.30
2018-02-25T04:12:26.331Z,-1.40
2018-02-25T04:15:27.559Z,-1.30
2018-02-25T04:18:28.779Z,-1.30
2018-02-25T04:21:29.996Z,-1.50
2018-02-25T04:24:31.213Z,-1.50
2018-02-25T04:27:33.231Z,-1.40
2018-02-25T04:30:34.400Z,-1.40
2018-02-25T04:33:35.623Z,-1.40
2018-02-25T04:36:37.577Z,-1.40
2018-02-25T04:39:38.796Z,-1.40
2018-02-25T04:42:40.016Z,-1.50
2018-02-25T04:45:41.227Z,-1.50
2018-02-25T04:48:42.455Z,-1.40
2018-02-25T04:51:44.430Z,-1.40
2018-02-25T04:54:46.392Z,-1.50
2018-02-25T04:57:47.624Z,-1.50
2018-02-25T05:00:48.833Z,-1.60
2018-02-25T05:03:50.080Z,-1.60
2018-02-25T05:06:51.284Z,-1.60
2018-02-25T05:09:52.508Z,-1.70
2018-02-25T05:12:53.705Z,-1.70
2018-02-25T05:15:54.905Z,-1.80
2018-02-25T05:18:56.129Z,-1.90
2018-02-25T05:21:57.360Z,-1.90
2018-02-25T05:24:58.604Z,-1.90
2018-02-25T05:27:59.833Z,-1.90
2018-02-25T05:31:01.030Z,-2.00
2018-02-25T05:34:02.231Z,-1.90
2018-02-25T05:37:03.441Z,-1.90
2018-02-25T05:40:04.641Z,-1.90
2018-02-25T05:43:06.566Z,-1.90
2018-02-25T05:46:07.765Z,-1.90
2018-02-25T05:49:09.076Z,-1.90
2018-02-25T05:52:10.265Z,-2.00
2018-02-25T05:55:11.489Z,-2.00
2018-02-25T05:58:12.689Z,-2.10
2018-02-25T06:04:21.936Z,-2.20
2018-02-25T06:07:23.152Z,-2.20
2018-02-25T06:10:25.094Z,-2.20
2018-02-25T06:13:26.286Z,-2.20
2018-02-25T06:16:27.510Z,-2.30
2018-02-25T06:19:28.705Z,-2.20
2018-02-25T06:22:29.914Z,-2.30
2018-02-25T06:25:31.868Z,-2.30
2018-02-25T06:28:33.057Z,-2.40
2018-02-25T06:31:35.025Z,-2.40
2018-02-25T06:34:36.984Z,-2.40
2018-02-25T06:37:38.180Z,-2.40
2018-02-25T06:40:40.133Z,-2.40
2018-02-25T06:43:41.425Z,-2.40
2018-02-25T06:46:43.397Z,-2.40
2018-02-25T06:49:45.329Z,-2.40
2018-02-25T06:52:46.546Z,-2.40
2018-02-25T06:55:48.508Z,-2.40
2018-02-25T06:58:50.445Z,-2.40
2018-02-25T07:01:51.673Z,-2.40
2018-02-25T07:04:52.892Z,-2.30
2018-02-25T07:07:54.120Z,-2.40
2018-02-25T07:10:55.339Z,-2.50
2018-02-25T07:13:57.331Z,-2.60
2018-02-25T07:16:59.277Z,-2.40
2018-02-25T07:20:00.607Z,-2.50
2018-02-25T07:23:01.852Z,-2.30
2018-02-25T07:26:03.069Z,-2.30
2018-02-25T07:29:04.390Z,-2.30
2018-02-25T07:32:05.623Z,-2.30
2018-02-25T07:35:07.589Z,-2.30
2018-02-25T07:38:08.833Z,-2.30
2018-02-25T07:41:10.137Z,-2.30
2018-02-25T07:44:11.350Z,-2.30
2018-02-25T07:47:12.572Z,-2.20
2018-02-25T07:50:13.814Z,-2.30
2018-02-25T07:53:15.779Z,-2.20
2018-02-25T07:56:17.056Z,-2.30
2018-02-25T07:59:19.011Z,-2.20
2018-02-25T08:02:20.232Z,-2.20
2018-02-25T08:05:21.457Z,-2.20
2018-02-25T08:08:23.428Z,-2.20
2018-02-25T08:11:24.664Z,-2.20
2018-02-25T08:14:25.920Z,-2.10
2018-02-25T08:17:27.125Z,-2.10
2018-02-25T08:20:29.142Z,-2.10
2018-02-25T08:23:30.346Z,-2.10
2018-02-25T08:26:31.581Z,-2.20
2018-02-25T08:29:32.785Z,-2.00
2018-02-25T08:32:34.021Z,-1.90
2018-02-25T08:35:35.256Z,-1.90
2018-02-25T08:38:36.490Z,-1.70
2018-02-25T08:41:38.460Z,-1.80
2018-02-25T08:44:40.410Z,-1.80
2018-02-25T08:47:41.666Z,-1.90
2018-02-25T08:50:42.918Z,-1.70
2018-02-25T08:53:44.149Z,-1.60
2018-02-25T08:56:45.365Z,-1.60
2018-02-25T08:59:46.605Z,-1.60
2018-02-25T09:02:47.824Z,-1.50
2018-02-25T09:05:49.846Z,-1.50
2018-02-25T09:08:51.084Z,-1.50
2018-02-25T09:11:52.308Z,-1.40
2018-02-25T09:14:53.562Z,-1.40
2018-02-25T09:17:54.777Z,-1.20
2018-02-25T09:20:56.000Z,-1.30
2018-02-25T09:23:57.255Z,-1.10
2018-02-25T09:26:58.490Z,-1.00
2018-02-25T09:29:59.706Z,-0.90
2018-02-25T09:33:00.930Z,-0.90
2018-02-25T09:36:02.204Z,-0.80
2018-02-25T09:39:03.456Z,-0.70
2018-02-25T09:42:04.703Z,-0.60
2018-02-25T09:45:05.912Z,-0.50
2018-02-25T09:48:07.850Z,-0.50
2018-02-25T09:51:09.068Z,-0.50
2018-02-25T09:54:10.313Z,-0.50
2018-02-25T09:57:12.282Z,-0.40
2018-02-25T10:00:13.527Z,-0.50
2018-02-25T10:03:14.749Z,-0.30
2018-02-25T10:06:16.026Z,-0.40
2018-02-25T10:09:17.233Z,-0.40
2018-02-25T10:12:18.449Z,-0.30
2018-02-25T10:15:19.675Z,-0.30
2018-02-25T10:18:21.645Z,-0.10
2018-02-25T10:21:22.884Z,-0.10
2018-02-25T10:24:24.113Z,0.20
2018-02-25T10:27:25.394Z,0.00
2018-02-25T10:30:26.617Z,0.00
2018-02-25T10:33:28.599Z,3.50
2018-02-25T10:36:29.912Z,3.60
2018-02-25T10:39:31.203Z,7.10
2018-02-25T10:42:33.256Z,2.00
2018-02-25T10:45:34.545Z,1.90
2018-02-25T10:48:35.923Z,1.20
2018-02-25T10:51:37.932Z,0.60
2018-02-25T10:54:39.221Z,0.60
2018-02-25T10:57:40.527Z,0.80
2018-02-25T11:00:41.841Z,0.80
2018-02-25T11:03:43.114Z,0.90
2018-02-25T11:06:44.385Z,1.00
2018-02-25T11:09:45.657Z,1.00
2018-02-25T11:12:46.945Z,1.30
2018-02-25T11:15:48.999Z,1.40
2018-02-25T11:18:50.261Z,1.40
2018-02-25T11:21:51.568Z,1.40
2018-02-25T11:24:53.558Z,1.70
2018-02-25T11:27:54.840Z,1.70
2018-02-25T11:30:56.081Z,1.60
2018-02-25T11:33:57.368Z,1.80
2018-02-25T11:36:58.636Z,1.90
2018-02-25T11:39:59.884Z,2.00
2018-02-25T11:43:01.129Z,1.80
2018-02-25T11:46:03.185Z,1.90
2018-02-25T11:49:04.517Z,1.80
2018-02-25T11:52:05.800Z,1.90
2018-02-25T11:55:07.065Z,1.90
2018-02-25T11:58:08.347Z,1.90
2018-02-25T12:01:10.411Z,1.90
2018-02-25T12:04:11.661Z,1.90
2018-02-25T12:07:12.928Z,2.00
2018-02-25T12:10:14.192Z,2.00
2018-02-25T12:13:15.462Z,2.00
2018-02-25T12:16:16.733Z,2.20
2018-02-25T12:19:18.015Z,2.50
2018-02-25T12:22:19.368Z,2.30
2018-02-25T12:25:20.639Z,2.00
2018-02-25T12:28:21.896Z,2.10
2018-02-25T12:31:23.305Z,2.00
2018-02-25T12:34:24.610Z,2.10
2018-02-25T12:37:25.922Z,2.10
2018-02-25T12:40:27.202Z,2.00
2018-02-25T12:43:28.492Z,2.10
2018-02-25T12:46:29.767Z,2.10
2018-02-25T12:49:31.018Z,2.20
2018-02-25T12:52:33.321Z,2.10
2018-02-25T12:55:34.603Z,2.50
2018-02-25T12:58:35.882Z,2.60
2018-02-25T13:01:37.106Z,2.30
2018-02-25T13:04:38.401Z,2.10
2018-02-25T13:07:39.732Z,2.10
2018-02-25T13:10:40.989Z,2.30
2018-02-25T13:13:43.001Z,2.40
2018-02-25T13:16:44.234Z,2.40
2018-02-25T13:19:45.533Z,2.30
2018-02-25T13:22:46.793Z,2.60
2018-02-25T13:25:48.081Z,3.10
2018-02-25T13:28:49.355Z,2.90
2018-02-25T13:31:51.392Z,3.00
2018-02-25T13:34:52.660Z,2.80
2018-02-25T13:37:53.938Z,3.00
2018-02-25T13:40:55.608Z,2.90
2018-02-25T13:43:57.711Z,2.90
2018-02-25T13:46:59.398Z,2.80
2018-02-25T13:50:00.673Z,3.00
2018-02-25T13:53:01.924Z,2.90
2018-02-25T13:56:03.932Z,3.00
2018-02-25T13:59:05.198Z,3.00
2018-02-25T14:02:06.456Z,3.10
2018-02-25T14:05:07.761Z,3.20
2018-02-25T14:08:08.997Z,3.30
2018-02-25T14:11:10.239Z,3.30
2018-02-25T14:14:11.512Z,3.20
2018-02-25T14:17:12.710Z,3.10
2018-02-25T14:20:13.941Z,3.10
2018-02-25T14:23:15.161Z,2.80
2018-02-25T14:26:17.128Z,2.40
2018-02-25T14:29:18.343Z,2.40
2018-02-25T14:32:19.581Z,2.30
2018-02-25T14:35:21.525Z,2.40
2018-02-25T14:38:22.720Z,2.40
2018-02-25T14:41:24.666Z,2.40
2018-02-25T14:44:25.873Z,2.40
2018-02-25T14:47:27.093Z,2.30
2018-02-25T14:50:28.297Z,2.30
2018-02-25T14:53:29.564Z,2.30
2018-02-25T14:56:30.757Z,2.50
2018-02-25T14:59:31.960Z,2.40
2018-02-25T15:02:33.906Z,1.80
2018-02-25T15:05:35.122Z,1.70
2018-02-25T15:08:36.332Z,1.60
2018-02-25T15:11:37.568Z,1.70
2018-02-25T15:14:38.761Z,1.50
2018-02-25T15:17:40.012Z,1.40
2018-02-25T15:20:41.252Z,1.30
2018-02-25T15:23:42.461Z,1.30
2018-02-25T15:26:43.700Z,1.10
2018-02-25T15:29:44.921Z,1.00
2018-02-25T15:32:46.144Z,1.10
2018-02-25T15:35:47.407Z,0.90
2018-02-25T15:38:48.616Z,1.10
2018-02-25T15:41:49.834Z,1.00
2018-02-25T15:44:51.180Z,1.00
2018-02-25T15:47:53.234Z,0.90
2018-02-25T15:50:54.428Z,0.90
2018-02-25T15:53:55.664Z,1.00
2018-02-25T15:56:56.954Z,0.90
2018-02-25T15:59:58.200Z,0.90
2018-02-25T16:02:59.431Z,1.00
2018-02-25T16:06:00.638Z,0.90
2018-02-25T16:09:01.893Z,0.90
2018-02-25T16:12:03.113Z,0.70
2018-02-25T16:15:05.077Z,0.80
2018-02-25T16:18:07.110Z,0.80
2018-02-25T16:21:08.324Z,0.80
2018-02-25T16:24:10.291Z,1.30
2018-02-25T16:27:11.765Z,1.30
2018-02-25T16:30:13.086Z,1.10
2018-02-25T16:33:14.309Z,0.90
2018-02-25T16:36:16.395Z,0.60
2018-02-25T16:39:18.415Z,0.70
2018-02-25T16:42:19.703Z,0.70
2018-02-25T16:45:21.045Z,0.90
2018-02-25T16:48:22.241Z,0.90
2018-02-25T16:51:23.466Z,0.80
2018-02-25T16:54:24.717Z,0.70
2018-02-25T16:57:25.912Z,0.70
2018-02-25T17:00:27.149Z,0.70
2018-02-25T17:03:28.426Z,0.80
2018-02-25T17:06:29.677Z,0.70
2018-02-25T17:09:30.905Z,1.00
2018-02-25T17:12:32.992Z,0.70
2018-02-25T17:15:34.332Z,0.70
2018-02-25T17:18:35.557Z,0.70
2018-02-25T17:21:36.773Z,0.60
2018-02-25T17:24:38.783Z,0.50
2018-02-25T17:27:40.033Z,0.50
2018-02-25T17:30:41.233Z,0.60
2018-02-25T17:33:42.489Z,0.50
2018-02-25T17:36:43.711Z,0.60
2018-02-25T17:39:44.977Z,0.50
2018-02-25T17:42:46.210Z,0.50
2018-02-25T17:45:47.414Z,0.50
2018-02-25T17:48:48.617Z,0.50
2018-02-25T17:51:49.828Z,0.40
2018-02-25T17:54:51.017Z,0.30
2018-02-25T17:57:52.247Z,0.20
2018-02-25T18:00:53.508Z,0.30
2018-02-25T18:03:54.738Z,0.10
2018-02-25T18:06:55.933Z,0.00
2018-02-25T18:09:57.923Z,0.00
2018-02-25T18:12:59.148Z,0.00
2018-02-25T18:16:00.356Z,0.10
2018-02-25T18:19:01.577Z,0.00
2018-02-25T18:22:02.793Z,-0.10
2018-02-25T18:25:04.043Z,-0.10
2018-02-25T18:28:05.295Z,-0.20
2018-02-25T18:31:06.518Z,0.00
2018-02-25T18:34:07.844Z,-0.20
2018-02-25T18:37:09.060Z,-0.20
2018-02-25T18:40:11.032Z,-0.20
2018-02-25T18:43:12.246Z,-0.20
2018-02-25T18:46:13.476Z,-0.10
2018-02-25T18:49:15.443Z,-0.10
2018-02-25T18:52:16.645Z,-0.20
2018-02-25T18:55:17.850Z,-0.10
2018-02-25T18:58:19.045Z,-0.30
2018-02-25T19:01:20.994Z,-0.10
2018-02-25T19:04:22.201Z,-0.10
2018-02-25T19:07:23.418Z,-0.20
2018-02-25T19:10:24.644Z,0.00
2018-02-25T19:13:25.835Z,-0.10
2018-02-25T19:16:27.064Z,-0.20
2018-02-25T19:19:28.296Z,-0.20
2018-02-25T19:22:30.244Z,-0.10
2018-02-25T19:25:31.453Z,-0.20
2018-02-25T19:28:32.792Z,-0.10
2018-02-25T19:31:34.785Z,-0.50
2018-02-25T19:34:36.756Z,-0.30
2018-02-25T19:37:44.915Z,-0.30
2018-02-25T19:40:52.271Z,-0.40
2018-02-25T19:43:53.492Z,-0.30
2018-02-25T19:46:54.765Z,-0.20
2018-02-25T19:49:55.953Z,-0.10
2018-02-25T19:52:57.157Z,-0.20
2018-02-25T19:55:58.377Z,-0.40
2018-02-25T19:58:59.586Z,-0.40
2018-02-25T20:02:00.815Z,-0.20
2018-02-25T20:05:02.797Z,0.70
2018-02-25T20:08:04.783Z,0.70
2018-02-25T20:11:06.738Z,0.30
2018-02-25T20:14:07.982Z,0.30
2018-02-25T20:17:09.228Z,0.10
2018-02-25T20:20:10.435Z,0.10
2018-02-25T20:23:11.738Z,-0.30
2018-02-25T20:26:12.947Z,-0.20
2018-02-25T20:29:14.145Z,-0.40
2018-02-25T20:32:16.144Z,-0.60
2018-02-25T20:35:17.434Z,-0.60
2018-02-25T20:38:19.337Z,-0.40
2018-02-25T20:41:20.537Z,-0.40
2018-02-25T20:44:21.742Z,-0.30
2018-02-25T20:47:22.939Z,-0.40
2018-02-25T20:50:24.894Z,-0.30
2018-02-25T20:53:26.111Z,-0.30
2018-02-25T20:56:27.328Z,-0.40
2018-02-25T20:59:28.548Z,-0.50
2018-02-25T21:02:29.753Z,-0.60
2018-02-25T21:05:30.985Z,-0.70
2018-02-25T21:08:32.256Z,-0.60
2018-02-25T21:11:33.492Z,-0.60
2018-02-25T21:14:34.714Z,-0.50
2018-02-25T21:17:36.840Z,-0.50
2018-02-25T21:20:38.478Z,-0.60
2018-02-25T21:23:40.991Z,-0.80
2018-02-25T21:26:42.497Z,-0.80
2018-02-25T21:29:44.265Z,-0.70
2018-02-25T21:32:45.617Z,-0.60
2018-02-25T21:35:46.865Z,-0.50
2018-02-25T21:38:48.089Z,-0.60
2018-02-25T21:41:49.508Z,-0.60
2018-02-25T21:44:50.817Z,-0.60
2018-02-25T21:47:52.039Z,-0.50
2018-02-25T21:50:53.296Z,-0.60
2018-02-25T21:53:54.555Z,-0.70
2018-02-25T21:57:01.825Z,-0.60
2018-02-25T22:00:09.941Z,-0.70
2018-02-25T22:03:17.231Z,-0.80
2018-02-25T22:06:18.454Z,-0.70
2018-02-25T22:09:19.704Z,-0.90
2018-02-25T22:12:20.908Z,-1.00
2018-02-25T22:15:22.137Z,-1.00
2018-02-25T22:18:23.352Z,-0.90
2018-02-25T22:21:24.892Z,-0.70
2018-02-25T22:24:26.647Z,-0.40
2018-02-25T22:27:27.902Z,-0.60
2018-02-25T22:30:29.708Z,-0.70
2018-02-25T22:33:31.197Z,-0.80
2018-02-25T22:36:32.524Z,-0.80
2018-02-25T22:39:33.985Z,-0.90
2018-02-25T22:42:35.224Z,-0.90
2018-02-25T22:45:37.309Z,-1.00
2018-02-25T22:48:39.360Z,-1.00
2018-02-25T22:51:41.467Z,-1.10
2018-02-25T22:54:43.470Z,-1.10
2018-02-25T22:57:44.763Z,-1.10
2018-02-25T23:00:46.014Z,-1.10
2018-02-25T23:03:48.050Z,-1.20
2018-02-25T23:06:50.016Z,-1.20
2018-02-25T23:09:51.256Z,-1.20
2018-02-25T23:12:52.481Z,-1.30
2018-02-25T23:15:53.773Z,-1.30
2018-02-25T23:18:55.028Z,-1.20
2018-02-25T23:21:56.290Z,-1.40
2018-02-25T23:24:57.537Z,-1.50
2018-02-25T23:27:58.749Z,-1.40
2018-02-25T23:30:59.945Z,-1.50
2018-02-25T23:34:01.901Z,-1.50
2018-02-25T23:37:03.126Z,-1.40
2018-02-25T23:40:04.404Z,-1.40
2018-02-25T23:43:05.612Z,-1.40
2018-02-25T23:46:07.587Z,-1.30
2018-02-25T23:49:09.521Z,-1.30
2018-02-25T23:52:10.749Z,-1.30
2018-02-25T23:55:11.949Z,-1.40
2018-02-25T23:58:13.168Z,-1.50
